createdAt,value
2023-03-21T00:00:56.237Z,79.90
2023-03-21T00:03:25.456Z,79.90
2023-03-21T00:05:54.856Z,79.27
2023-03-21T00:08:25.731Z,79.44
2023-03-21T00:10:58.447Z,79.20
2023-03-21T00:13:32.650Z,79.50
2023-03-21T00:16:13.612Z,80.31
2023-03-21T00:18:52.502Z,79.46
2023-03-21T00:24:16.755Z,79.35
2023-03-21T00:26:45.092Z,78.92
2023-03-21T00:29:14.661Z,79.27
2023-03-21T00:31:42.932Z,79.12
2023-03-21T00:36:44.707Z,79.14
2023-03-21T00:39:14.217Z,79.41
2023-03-21T00:41:43.514Z,81.21
2023-03-21T00:44:15.780Z,81.91
2023-03-21T00:46:57.278Z,82.08
2023-03-21T00:49:33.959Z,81.20
2023-03-21T00:52:15.160Z,81.07
2023-03-21T00:54:45.319Z,83.81
2023-03-21T00:57:13.552Z,85.43
2023-03-21T00:59:43.190Z,85.67
2023-03-21T01:02:14.783Z,85.85
2023-03-21T01:04:44.533Z,86.26
2023-03-21T01:07:12.769Z,87.27
2023-03-21T01:09:41.035Z,87.54
2023-03-21T01:12:10.595Z,87.92
2023-03-21T01:14:39.253Z,89.10
2023-03-21T01:17:10.015Z,89.53
2023-03-21T01:19:51.180Z,90.07
2023-03-21T01:22:21.114Z,90.40
2023-03-21T01:24:55.369Z,89.92
2023-03-21T01:27:26.763Z,90.25
2023-03-21T01:29:55.685Z,90.06
2023-03-21T01:32:25.308Z,90.96
2023-03-21T01:34:53.514Z,91.50
2023-03-21T01:37:26.331Z,91.66
2023-03-21T01:39:54.546Z,91.19
2023-03-21T01:42:23.474Z,91.37
2023-03-21T01:44:58.956Z,92.08
2023-03-21T01:47:36.926Z,90.57
2023-03-21T01:50:12.552Z,90.06
2023-03-21T01:52:51.361Z,89.39
2023-03-21T01:55:28.723Z,87.96
2023-03-21T01:58:23.165Z,87.68
2023-03-21T02:01:04.861Z,87.92
2023-03-21T02:03:51.648Z,88.29
2023-03-21T02:06:45.681Z,89.03
2023-03-21T02:09:33.483Z,90.00
2023-03-21T02:12:03.045Z,89.99
2023-03-21T02:14:36.051Z,90.80
2023-03-21T02:17:22.886Z,91.39
2023-03-21T02:20:44.001Z,92.10
2023-03-21T02:24:10.343Z,92.29
2023-03-21T02:27:08.897Z,91.41
2023-03-21T02:30:39.984Z,92.23
2023-03-21T02:33:48.276Z,92.26
2023-03-21T02:36:28.485Z,92.47
2023-03-21T02:39:08.941Z,92.07
2023-03-21T02:41:48.250Z,92.35
2023-03-21T02:44:24.142Z,92.65
2023-03-21T02:47:05.378Z,93.18
2023-03-21T02:49:43.532Z,93.11
2023-03-21T02:52:35.553Z,93.46
2023-03-21T02:55:14.246Z,93.66
2023-03-21T02:57:52.805Z,93.56
2023-03-21T03:00:25.596Z,93.28
2023-03-21T03:03:08.206Z,92.58
2023-03-21T03:05:43.518Z,92.32
2023-03-21T03:08:38.504Z,92.27
2023-03-21T03:11:24.335Z,92.19
2023-03-21T03:14:56.506Z,92.24
2023-03-21T03:17:44.309Z,91.70
2023-03-21T03:20:31.243Z,91.70
2023-03-21T03:23:14.941Z,91.96
2023-03-21T03:25:50.273Z,92.03
2023-03-21T03:28:26.278Z,92.57
2023-03-21T03:31:08.766Z,93.39
2023-03-21T03:33:56.904Z,93.25
2023-03-21T03:36:33.169Z,93.83
2023-03-21T03:39:18.075Z,94.01
2023-03-21T03:42:18.270Z,94.43
2023-03-21T03:44:58.665Z,94.29
2023-03-21T03:47:39.935Z,93.81
2023-03-21T03:50:21.506Z,93.43
2023-03-21T03:53:01.246Z,93.87
2023-03-21T03:55:34.614Z,93.25
2023-03-21T03:58:21.675Z,93.50
2023-03-21T04:00:55.385Z,93.40
2023-03-21T04:03:24.030Z,93.40
2023-03-21T04:05:54.045Z,93.54
2023-03-21T04:08:23.199Z,93.67
2023-03-21T04:10:55.341Z,94.05
2023-03-21T04:13:25.799Z,94.06
2023-03-21T04:16:13.045Z,95.03
2023-03-21T04:18:43.155Z,95.98
2023-03-21T04:21:13.471Z,96.14
2023-03-21T04:23:42.954Z,96.31
2023-03-21T04:26:11.587Z,96.64
2023-03-21T04:28:52.524Z,97.24
2023-03-21T04:31:53.822Z,96.53
2023-03-21T04:34:23.889Z,96.77
2023-03-21T04:36:54.503Z,97.05
2023-03-21T04:39:24.755Z,97.17
2023-03-21T04:41:53.056Z,97.34
2023-03-21T04:44:21.973Z,96.83
2023-03-21T04:46:50.347Z,96.84
2023-03-21T04:49:19.956Z,96.18
2023-03-21T04:51:48.196Z,96.74
2023-03-21T04:54:21.029Z,96.68
2023-03-21T04:56:49.267Z,96.50
2023-03-21T04:59:17.766Z,96.91
2023-03-21T05:01:46.710Z,96.62
2023-03-21T05:04:16.209Z,96.81
2023-03-21T05:06:47.260Z,96.63
2023-03-21T05:09:17.697Z,96.61
2023-03-21T05:11:45.952Z,96.78
2023-03-21T05:14:19.285Z,97.55
2023-03-21T05:16:53.489Z,97.64
2023-03-21T05:19:25.867Z,97.35
2023-03-21T05:21:55.589Z,97.72
2023-03-21T05:24:28.664Z,97.08
2023-03-21T05:27:02.722Z,97.39
2023-03-21T05:29:35.520Z,96.95
2023-03-21T05:32:07.061Z,97.17
2023-03-21T05:34:35.290Z,97.18
2023-03-21T05:37:05.629Z,96.72
2023-03-21T05:39:46.686Z,97.67
2023-03-21T05:42:22.447Z,97.59
2023-03-21T05:44:51.108Z,97.53
2023-03-21T05:47:23.973Z,97.43
2023-03-21T05:49:53.894Z,97.52
2023-03-21T05:52:24.724Z,97.30
2023-03-21T05:54:53.286Z,97.94
2023-03-21T05:57:24.728Z,98.13
2023-03-21T06:00:07.208Z,98.03
2023-03-21T06:02:43.626Z,97.94
2023-03-21T06:05:31.226Z,98.13
2023-03-21T06:08:01.474Z,98.08
2023-03-21T06:10:29.810Z,98.69
2023-03-21T06:12:59.374Z,98.44
2023-03-21T06:15:30.639Z,98.47
2023-03-21T06:18:06.478Z,98.48
2023-03-21T06:20:35.926Z,98.83
2023-03-21T06:23:11.367Z,98.62
2023-03-21T06:25:40.098Z,98.67
2023-03-21T06:28:08.546Z,99.19
2023-03-21T06:30:41.130Z,99.15
2023-03-21T06:33:15.794Z,99.18
2023-03-21T06:35:45.775Z,99.92
2023-03-21T06:38:15.759Z,100.00
2023-03-21T06:40:43.978Z,100.00
2023-03-21T06:43:12.169Z,100.00
2023-03-21T06:45:41.152Z,100.00
2023-03-21T06:48:12.512Z,100.00
2023-03-21T06:50:52.117Z,100.00
2023-03-21T06:53:27.298Z,100.00
2023-03-21T06:56:16.274Z,99.12
2023-03-21T06:58:46.538Z,97.59
2023-03-21T07:01:27.674Z,96.10
2023-03-21T07:04:15.901Z,95.12
2023-03-21T07:06:47.979Z,94.55
2023-03-21T07:09:18.552Z,93.22
2023-03-21T07:11:47.672Z,92.22
2023-03-21T07:14:15.956Z,92.71
2023-03-21T07:16:44.267Z,93.03
2023-03-21T07:19:12.859Z,92.04
2023-03-21T07:21:41.085Z,92.68
2023-03-21T07:24:10.041Z,92.16
2023-03-21T07:26:40.391Z,92.08
2023-03-21T07:29:08.655Z,91.51
2023-03-21T07:31:37.468Z,91.26
2023-03-21T07:34:05.941Z,91.16
2023-03-21T07:36:34.466Z,91.23
2023-03-21T07:39:02.995Z,90.28
2023-03-21T07:41:32.331Z,90.33
2023-03-21T07:44:13.824Z,89.68
2023-03-21T07:46:42.192Z,89.67
2023-03-21T07:49:10.382Z,89.33
2023-03-21T07:51:39.228Z,88.50
2023-03-21T07:54:07.715Z,89.29
2023-03-21T07:56:36.438Z,87.88
2023-03-21T07:59:05.418Z,87.05
2023-03-21T08:01:35.085Z,87.97
2023-03-21T08:04:03.231Z,87.55
2023-03-21T08:06:32.603Z,87.90
2023-03-21T08:09:01.506Z,85.60
2023-03-21T08:11:31.488Z,83.84
2023-03-21T08:13:59.934Z,85.25
2023-03-21T08:16:28.350Z,83.08
2023-03-21T08:18:57.923Z,82.82
2023-03-21T08:21:26.264Z,83.00
2023-03-21T08:23:54.904Z,82.59
2023-03-21T08:26:25.171Z,81.49
2023-03-21T08:28:53.552Z,80.31
2023-03-21T08:31:22.543Z,80.34
2023-03-21T08:33:54.823Z,82.37
2023-03-21T08:36:24.722Z,81.27
2023-03-21T08:38:56.863Z,81.51
2023-03-21T08:41:26.023Z,81.69
2023-03-21T08:43:54.218Z,80.22
2023-03-21T08:46:23.020Z,79.52
2023-03-21T08:48:51.256Z,79.32
2023-03-21T08:51:19.611Z,80.50
2023-03-21T08:53:50.986Z,80.12
2023-03-21T08:56:19.509Z,79.92
2023-03-21T08:58:47.726Z,78.17
2023-03-21T09:01:20.366Z,78.18
2023-03-21T09:03:49.785Z,76.72
2023-03-21T09:06:21.766Z,76.46
2023-03-21T09:08:52.733Z,76.19
2023-03-21T09:11:20.919Z,75.37
2023-03-21T09:13:49.227Z,74.14
2023-03-21T09:16:17.544Z,74.04
2023-03-21T09:18:47.314Z,72.31
2023-03-21T09:21:16.732Z,72.46
2023-03-21T09:23:46.189Z,71.14
2023-03-21T09:26:16.275Z,70.66
2023-03-21T09:28:44.539Z,71.46
2023-03-21T09:31:14.658Z,67.76
2023-03-21T09:33:43.769Z,68.91
2023-03-21T09:36:14.247Z,68.62
2023-03-21T09:38:45.591Z,68.89
2023-03-21T09:41:32.344Z,66.39
2023-03-21T09:44:16.320Z,65.33
2023-03-21T09:46:52.355Z,65.42
2023-03-21T09:49:29.575Z,65.25
2023-03-21T09:51:59.864Z,66.21
2023-03-21T09:54:33.429Z,67.34
2023-03-21T09:57:14.975Z,65.56
2023-03-21T09:59:43.478Z,66.94
2023-03-21T10:02:35.883Z,65.23
2023-03-21T10:05:13.553Z,63.85
2023-03-21T10:07:47.669Z,63.25
2023-03-21T10:10:23.687Z,64.20
2023-03-21T10:12:55.325Z,65.20
2023-03-21T10:15:27.717Z,67.10
2023-03-21T10:18:08.116Z,65.94
2023-03-21T10:20:38.928Z,64.71
2023-03-21T10:23:12.682Z,64.94
2023-03-21T10:25:44.452Z,64.72
2023-03-21T10:28:18.648Z,62.96
2023-03-21T10:30:51.512Z,62.99
2023-03-21T10:33:23.871Z,62.42
2023-03-21T10:35:55.752Z,60.64
2023-03-21T10:38:26.906Z,61.26
2023-03-21T10:40:55.963Z,61.41
2023-03-21T10:43:38.764Z,60.79
2023-03-21T10:46:10.942Z,61.31
2023-03-21T10:48:46.142Z,63.16
2023-03-21T10:51:20.793Z,59.59
2023-03-21T10:53:54.077Z,58.09
2023-03-21T10:56:27.891Z,57.50
2023-03-21T10:58:59.722Z,56.76
2023-03-21T11:01:36.466Z,55.32
2023-03-21T11:04:31.716Z,55.48
2023-03-21T11:07:07.025Z,56.44
2023-03-21T11:09:50.022Z,55.82
2023-03-21T11:12:30.568Z,55.95
2023-03-21T11:15:27.526Z,56.34
2023-03-21T11:17:55.990Z,56.59
2023-03-21T11:20:24.948Z,57.07
2023-03-21T11:22:56.888Z,57.46
2023-03-21T11:25:34.988Z,57.28
2023-03-21T11:28:08.472Z,57.81
2023-03-21T11:30:38.630Z,58.26
2023-03-21T11:33:08.162Z,58.04
2023-03-21T11:35:39.546Z,58.77
2023-03-21T11:38:25.900Z,56.10
2023-03-21T11:40:59.292Z,56.93
2023-03-21T11:43:31.799Z,57.00
2023-03-21T11:46:08.647Z,57.94
2023-03-21T11:48:42.254Z,58.06
2023-03-21T11:51:23.804Z,56.98
2023-03-21T11:54:01.376Z,57.31
2023-03-21T11:56:33.714Z,56.99
2023-03-21T11:59:22.189Z,58.53
2023-03-21T12:02:33.656Z,58.31
2023-03-21T12:05:06.384Z,57.28
2023-03-21T12:07:51.968Z,57.24
2023-03-21T12:10:33.638Z,57.19
2023-03-21T12:13:17.894Z,58.04
2023-03-21T12:15:58.851Z,56.98
2023-03-21T12:19:14.420Z,57.28
2023-03-21T12:21:55.040Z,58.05
2023-03-21T12:24:26.464Z,57.95
2023-03-21T12:27:02.032Z,58.25
2023-03-21T12:30:02.202Z,57.19
2023-03-21T12:32:46.429Z,58.67
2023-03-21T12:35:31.806Z,58.14
2023-03-21T12:38:16.718Z,58.29
2023-03-21T12:41:10.334Z,57.30
2023-03-21T12:43:55.339Z,58.74
2023-03-21T12:46:29.378Z,59.23
2023-03-21T12:49:02.618Z,58.75
2023-03-21T12:51:35.979Z,58.04
2023-03-21T12:54:15.029Z,59.25
2023-03-21T12:56:51.443Z,58.75
2023-03-21T12:59:28.383Z,59.20
2023-03-21T13:02:02.366Z,58.90
2023-03-21T13:04:43.629Z,58.54
2023-03-21T13:07:20.096Z,59.53
2023-03-21T13:09:48.551Z,58.28
2023-03-21T13:12:36.429Z,58.07
2023-03-21T13:15:24.371Z,59.10
2023-03-21T13:18:02.695Z,58.66
2023-03-21T13:20:37.261Z,59.66
2023-03-21T13:23:37.816Z,58.12
2023-03-21T13:26:11.289Z,58.96
2023-03-21T13:28:42.209Z,58.72
2023-03-21T13:31:21.897Z,59.13
2023-03-21T13:33:52.400Z,58.53
2023-03-21T13:36:26.830Z,58.83
2023-03-21T13:39:05.559Z,59.65
2023-03-21T13:41:37.134Z,59.53
2023-03-21T13:44:20.865Z,58.56
2023-03-21T13:46:56.263Z,58.05
2023-03-21T13:49:36.731Z,58.60
2023-03-21T13:52:27.555Z,58.69
2023-03-21T13:54:58.898Z,58.93
2023-03-21T13:57:40.735Z,58.37
2023-03-21T14:00:20.934Z,58.56
2023-03-21T14:02:58.339Z,58.59
2023-03-21T14:05:29.374Z,58.82
2023-03-21T14:08:13.600Z,58.84
2023-03-21T14:10:49.113Z,57.97
2023-03-21T14:13:21.925Z,58.97
2023-03-21T14:15:56.829Z,58.65
2023-03-21T14:18:48.092Z,58.48
2023-03-21T14:21:24.356Z,58.94
2023-03-21T14:24:01.492Z,58.94
2023-03-21T14:26:35.492Z,59.47
2023-03-21T14:29:09.695Z,59.37
2023-03-21T14:31:46.761Z,58.91
2023-03-21T14:34:17.065Z,59.47
2023-03-21T14:36:55.442Z,60.17
2023-03-21T14:39:29.663Z,60.56
2023-03-21T14:42:06.139Z,61.62
2023-03-21T14:44:52.812Z,63.17
2023-03-21T14:47:25.224Z,63.65
2023-03-21T14:49:53.987Z,64.24
2023-03-21T14:52:26.707Z,65.62
2023-03-21T14:54:56.492Z,66.68
2023-03-21T14:57:29.820Z,66.57
2023-03-21T15:00:02.200Z,68.42
2023-03-21T15:02:36.565Z,67.69
2023-03-21T15:05:11.952Z,66.33
2023-03-21T15:07:40.962Z,67.62
2023-03-21T15:10:17.952Z,68.12
2023-03-21T15:12:57.239Z,68.96
2023-03-21T15:15:27.969Z,67.64
2023-03-21T15:18:00.045Z,67.14
2023-03-21T15:20:33.380Z,68.40
2023-03-21T15:23:05.603Z,66.97
2023-03-21T15:25:37.612Z,66.37
2023-03-21T15:28:07.657Z,66.91
2023-03-21T15:30:36.122Z,66.18
2023-03-21T15:33:10.390Z,66.41
2023-03-21T15:35:41.623Z,66.88
2023-03-21T15:38:24.838Z,66.62
2023-03-21T15:40:53.093Z,68.03
2023-03-21T15:43:23.103Z,69.53
2023-03-21T15:45:56.772Z,71.30
2023-03-21T15:48:28.188Z,71.62
2023-03-21T15:51:03.083Z,71.70
2023-03-21T15:53:34.488Z,73.75
2023-03-21T15:56:06.102Z,72.65
2023-03-21T15:58:38.698Z,73.21
2023-03-21T16:01:13.336Z,73.72
2023-03-21T16:03:46.575Z,73.97
2023-03-21T16:06:21.792Z,73.03
2023-03-21T16:08:52.115Z,73.21
2023-03-21T16:11:26.025Z,73.14
2023-03-21T16:13:56.898Z,73.35
2023-03-21T16:16:27.565Z,73.57
2023-03-21T16:18:58.100Z,74.69
2023-03-21T16:21:28.926Z,73.50
2023-03-21T16:23:58.178Z,73.80
2023-03-21T16:26:30.617Z,73.76
2023-03-21T16:29:00.698Z,73.72
2023-03-21T16:31:32.317Z,73.46
2023-03-21T16:34:01.669Z,72.43
2023-03-21T16:36:32.465Z,72.65
2023-03-21T16:39:01.583Z,72.91
2023-03-21T16:41:29.805Z,72.60
2023-03-21T16:43:59.362Z,72.90
2023-03-21T16:46:28.550Z,73.24
2023-03-21T16:48:59.315Z,73.06
2023-03-21T16:51:34.524Z,73.22
2023-03-21T16:54:03.329Z,73.60
2023-03-21T16:56:38.339Z,73.71
2023-03-21T16:59:08.936Z,73.08
2023-03-21T17:01:38.393Z,72.61
2023-03-21T17:04:06.916Z,73.55
2023-03-21T17:06:44.551Z,72.77
2023-03-21T17:09:14.667Z,73.19
2023-03-21T17:11:43.255Z,73.12
2023-03-21T17:14:16.789Z,73.46
2023-03-21T17:16:45.753Z,73.43
2023-03-21T17:19:17.125Z,74.02
2023-03-21T17:21:47.104Z,74.62
2023-03-21T17:24:15.629Z,74.08
2023-03-21T17:26:43.982Z,74.61
2023-03-21T17:29:15.569Z,74.82
2023-03-21T17:31:47.318Z,75.31
2023-03-21T17:34:16.062Z,75.41
2023-03-21T17:36:47.356Z,75.53
2023-03-21T17:39:22.633Z,75.85
2023-03-21T17:41:51.972Z,75.71
2023-03-21T17:44:22.151Z,75.92
2023-03-21T17:46:52.205Z,75.93
2023-03-21T17:49:21.192Z,77.68
2023-03-21T17:51:50.441Z,78.89
2023-03-21T17:54:18.842Z,80.35
2023-03-21T17:56:47.397Z,80.87
2023-03-21T17:59:16.341Z,80.88
2023-03-21T18:01:46.630Z,80.85
2023-03-21T18:04:14.929Z,81.27
2023-03-21T18:06:43.135Z,82.17
2023-03-21T18:09:12.397Z,82.94
2023-03-21T18:11:41.791Z,83.49
2023-03-21T18:14:17.627Z,83.74
2023-03-21T18:16:50.645Z,85.05
2023-03-21T18:19:19.012Z,85.30
2023-03-21T18:21:47.184Z,85.76
2023-03-21T18:24:16.177Z,85.46
2023-03-21T18:26:46.171Z,85.94
2023-03-21T18:32:09.004Z,85.76
2023-03-21T18:34:39.422Z,85.12
2023-03-21T18:37:08.875Z,85.62
2023-03-21T18:39:38.207Z,86.58
2023-03-21T18:42:10.807Z,86.92
2023-03-21T18:44:45.662Z,86.13
2023-03-21T18:47:16.041Z,87.70
2023-03-21T18:50:15.193Z,87.53
2023-03-21T18:52:33.082Z,87.90
2023-03-21T18:55:01.270Z,87.86
2023-03-21T18:57:37.013Z,87.35
2023-03-21T19:00:12.954Z,88.04
2023-03-21T19:02:47.664Z,89.60
2023-03-21T19:05:18.582Z,89.21
2023-03-21T19:07:48.035Z,88.53
2023-03-21T19:10:19.956Z,88.94
2023-03-21T19:12:49.674Z,89.69
2023-03-21T19:15:19.816Z,89.76
2023-03-21T19:20:38.968Z,91.34
2023-03-21T19:23:09.340Z,91.49
2023-03-21T19:25:38.377Z,92.22
2023-03-21T19:28:06.921Z,91.54
2023-03-21T19:30:35.205Z,91.25
2023-03-21T19:33:05.343Z,91.54
2023-03-21T19:35:37.292Z,90.74
2023-03-21T19:38:06.113Z,92.12
2023-03-21T19:40:34.549Z,92.18
2023-03-21T19:43:21.534Z,92.11
2023-03-21T19:45:51.545Z,91.86
2023-03-21T19:48:23.463Z,91.41
2023-03-21T19:51:25.833Z,91.22
2023-03-21T19:53:40.654Z,91.22
2023-03-21T19:56:20.746Z,91.07
2023-03-21T19:58:50.551Z,92.16
2023-03-21T20:01:19.102Z,92.23
2023-03-21T20:03:48.661Z,91.96
2023-03-21T20:06:17.251Z,92.14
2023-03-21T20:11:33.868Z,91.71
2023-03-21T20:14:03.268Z,91.92
2023-03-21T20:16:35.860Z,91.79
2023-03-21T20:19:08.907Z,91.96
2023-03-21T20:21:47.689Z,91.99
2023-03-21T20:24:18.572Z,92.15
2023-03-21T20:26:47.217Z,92.22
2023-03-21T20:32:03.815Z,91.26
2023-03-21T20:34:36.808Z,92.37
2023-03-21T20:37:06.270Z,92.31
2023-03-21T20:39:34.651Z,92.61
2023-03-21T20:42:09.276Z,92.78
2023-03-21T20:44:57.745Z,92.27
2023-03-21T20:47:26.451Z,91.16
2023-03-21T20:49:56.760Z,91.22
2023-03-21T20:53:00.851Z,91.73
2023-03-21T20:55:14.419Z,90.64
2023-03-21T20:57:42.886Z,91.28
2023-03-21T21:00:14.927Z,91.20
2023-03-21T21:02:45.364Z,91.29
2023-03-21T21:05:34.464Z,90.95
2023-03-21T21:08:04.169Z,91.42
2023-03-21T21:10:33.788Z,91.60
2023-03-21T21:13:02.797Z,91.06
2023-03-21T21:15:31.311Z,91.60
2023-03-21T21:18:07.834Z,91.32
2023-03-21T21:20:40.191Z,91.63
2023-03-21T21:23:09.544Z,91.65
2023-03-21T21:25:38.959Z,91.29
2023-03-21T21:28:09.395Z,90.88
2023-03-21T21:30:41.267Z,91.84
2023-03-21T21:33:09.890Z,92.80
2023-03-21T21:35:39.605Z,91.99
2023-03-21T21:38:07.984Z,93.02
2023-03-21T21:40:36.494Z,93.96
2023-03-21T21:43:04.950Z,94.80
2023-03-21T21:45:33.556Z,95.89
2023-03-21T21:48:02.090Z,95.85
2023-03-21T21:50:30.385Z,96.12
2023-03-21T21:53:03.754Z,96.52
2023-03-21T21:55:32.464Z,97.34
2023-03-21T21:58:01.361Z,96.46
2023-03-21T22:00:31.743Z,96.14
2023-03-21T22:03:01.462Z,95.86
2023-03-21T22:05:30.182Z,95.82
2023-03-21T22:07:59.752Z,96.09
2023-03-21T22:10:28.436Z,97.37
2023-03-21T22:12:56.690Z,96.54
2023-03-21T22:15:25.176Z,96.89
2023-03-21T22:17:53.674Z,96.51
2023-03-21T22:20:22.588Z,95.29
2023-03-21T22:22:50.876Z,96.27
2023-03-21T22:25:20.786Z,96.02
2023-03-21T22:27:49.013Z,95.91
2023-03-21T22:30:18.590Z,95.22
2023-03-21T22:33:06.139Z,95.86
2023-03-21T22:35:34.733Z,95.89
2023-03-21T22:38:03.002Z,95.65
2023-03-21T22:40:32.693Z,95.12
2023-03-21T22:43:00.990Z,95.95
2023-03-21T22:45:29.457Z,95.19
2023-03-21T22:47:59.865Z,95.55
2023-03-21T22:50:28.838Z,96.31
2023-03-21T22:52:57.066Z,96.83
2023-03-21T22:55:25.281Z,96.75
2023-03-21T22:57:54.849Z,96.57
2023-03-21T23:00:23.455Z,95.71
2023-03-21T23:02:51.770Z,96.11
2023-03-21T23:05:20.419Z,95.90
2023-03-21T23:07:49.273Z,95.79
2023-03-21T23:10:18.112Z,96.66
2023-03-21T23:12:46.372Z,96.19
2023-03-21T23:15:16.010Z,96.03
2023-03-21T23:17:44.838Z,96.15
2023-03-21T23:20:13.248Z,95.56
2023-03-21T23:22:41.936Z,96.26
2023-03-21T23:25:11.991Z,96.05
2023-03-21T23:27:40.279Z,95.80
2023-03-21T23:30:09.892Z,96.25
2023-03-21T23:32:39.503Z,95.65
2023-03-21T23:35:09.631Z,95.75
2023-03-21T23:37:38.149Z,95.64
2023-03-21T23:40:09.179Z,95.62
2023-03-21T23:42:37.410Z,95.97
2023-03-21T23:45:06.988Z,95.98
2023-03-21T23:47:35.262Z,96.41
2023-03-21T23:50:07.783Z,97.41
2023-03-21T23:52:36.867Z,97.55
2023-03-21T23:55:06.415Z,97.63
2023-03-21T23:57:34.948Z,97.90
